createdAt,value
2023-05-10T10:10:37.920Z,101589.59
2023-05-10T10:13:06.055Z,101584.72
2023-05-10T10:15:34.624Z,101592.66
2023-05-10T10:18:02.706Z,101590.81
2023-05-10T10:20:30.537Z,101590.06
2023-05-10T10:22:58.101Z,101590.28
2023-05-10T10:25:26.588Z,101591.41
2023-05-10T10:28:13.431Z,101583.22
2023-05-10T10:30:44.004Z,101589.19
2023-05-10T10:33:31.669Z,101585.59
2023-05-10T10:36:01.475Z,101583.06
2023-05-10T10:38:38.185Z,101580.28
2023-05-10T10:41:11.805Z,101597.47
2023-05-10T10:43:40.830Z,101602.34
2023-05-10T10:46:16.057Z,101603.00
2023-05-10T10:48:49.569Z,101603.16
2023-05-10T10:51:17.693Z,101602.03
2023-05-10T10:53:45.693Z,101599.06
2023-05-10T10:56:16.465Z,101595.16
2023-05-10T10:58:51.430Z,101600.41
2023-05-10T11:01:20.623Z,101611.88
2023-05-10T11:04:18.738Z,101601.38
2023-05-10T11:06:46.503Z,101608.34
2023-05-10T11:09:14.270Z,101595.78
2023-05-10T11:11:53.201Z,101605.50
2023-05-10T11:14:23.036Z,101612.81
2023-05-10T11:16:52.943Z,101613.25
2023-05-10T11:19:21.322Z,101609.47
2023-05-10T11:21:50.428Z,101612.78
2023-05-10T11:24:20.082Z,101601.03
2023-05-10T11:26:51.590Z,101605.19
2023-05-10T11:29:23.185Z,101607.75
2023-05-10T11:31:52.309Z,101602.03
2023-05-10T11:34:27.339Z,101598.75
2023-05-10T11:36:56.805Z,101578.19
2023-05-10T11:39:28.411Z,101596.94
2023-05-10T11:41:56.792Z,101593.69
2023-05-10T11:44:30.536Z,101584.59
2023-05-10T11:46:59.990Z,101585.94
2023-05-10T11:49:27.674Z,101585.03
2023-05-10T11:52:05.335Z,101579.81
2023-05-10T11:54:33.870Z,101577.91
2023-05-10T11:57:01.669Z,101570.81
2023-05-10T11:59:31.071Z,101579.34
2023-05-10T12:01:58.984Z,101588.47
2023-05-10T12:04:27.076Z,101582.78
2023-05-10T12:06:54.980Z,101579.81
2023-05-10T12:09:31.856Z,101573.84
2023-05-10T12:12:03.790Z,101564.38
2023-05-10T12:14:36.566Z,101576.22
2023-05-10T12:17:04.273Z,101569.53
2023-05-10T12:19:38.582Z,101580.63
2023-05-10T12:22:06.669Z,101579.25
2023-05-10T12:24:35.740Z,101569.88
2023-05-10T12:27:06.277Z,101571.38
2023-05-10T12:29:35.513Z,101562.03
2023-05-10T12:32:03.393Z,101569.81
2023-05-10T12:34:33.463Z,101568.84
2023-05-10T12:37:01.890Z,101568.00
2023-05-10T12:39:40.200Z,101567.16
2023-05-10T12:42:08.249Z,101570.41
2023-05-10T12:44:37.587Z,101570.19
2023-05-10T12:47:05.314Z,101569.59
2023-05-10T12:49:33.090Z,101564.31
2023-05-10T12:52:00.754Z,101571.06
2023-05-10T12:54:28.325Z,101566.31
2023-05-10T12:56:56.200Z,101559.50
2023-05-10T12:59:24.041Z,101563.47
2023-05-10T13:01:53.036Z,101564.41
2023-05-10T13:04:20.754Z,101564.72
2023-05-10T13:06:48.968Z,101566.66
2023-05-10T13:09:16.526Z,101555.31
2023-05-10T13:11:44.373Z,101565.94
2023-05-10T13:14:12.241Z,101562.03
2023-05-10T13:16:39.857Z,101552.31
2023-05-10T13:19:09.105Z,101565.28
2023-05-10T13:21:37.450Z,101559.69
2023-05-10T13:24:05.132Z,101551.84
2023-05-10T13:26:32.945Z,101553.13
2023-05-10T13:29:00.802Z,101557.13
2023-05-10T13:31:28.579Z,101552.13
2023-05-10T13:33:56.824Z,101549.38
2023-05-10T13:36:25.904Z,101547.34
2023-05-10T13:38:53.582Z,101547.66
2023-05-10T13:41:21.329Z,101544.06
2023-05-10T13:43:48.916Z,101534.06
2023-05-10T13:46:16.486Z,101541.25
2023-05-10T13:48:44.291Z,101541.84
2023-05-10T13:51:11.982Z,101539.06
2023-05-10T13:53:40.992Z,101536.75
2023-05-10T13:56:08.830Z,101535.78
2023-05-10T13:58:36.777Z,101536.72
2023-05-10T14:01:04.408Z,101529.38
2023-05-10T14:03:32.310Z,101546.34
2023-05-10T14:06:00.188Z,101531.66
2023-05-10T14:08:27.793Z,101536.38
2023-05-10T14:10:57.055Z,101538.03
2023-05-10T14:13:25.065Z,101534.94
2023-05-10T14:15:53.798Z,101539.81
2023-05-10T14:18:21.793Z,101529.78
2023-05-10T14:20:49.923Z,101534.69
2023-05-10T14:23:17.598Z,101530.81
2023-05-10T14:25:45.287Z,101539.50
2023-05-10T14:28:14.361Z,101526.25
2023-05-10T14:30:41.988Z,101539.44
2023-05-10T14:33:11.632Z,101535.00
2023-05-10T14:35:39.484Z,101538.63
2023-05-10T14:38:07.116Z,101525.22
2023-05-10T14:40:34.881Z,101526.94
2023-05-10T14:43:02.718Z,101533.06
2023-05-10T14:45:31.844Z,101512.53
2023-05-10T14:47:59.709Z,101529.34
2023-05-10T14:50:36.619Z,101517.38
2023-05-10T14:53:05.276Z,101523.50
2023-05-10T14:55:32.961Z,101510.22
2023-05-10T14:58:00.566Z,101532.59
2023-05-10T15:00:33.039Z,101529.31
2023-05-10T15:03:01.248Z,101529.34
2023-05-10T15:05:29.479Z,101531.16
2023-05-10T15:07:57.798Z,101529.44
2023-05-10T15:10:25.588Z,101528.34
2023-05-10T15:12:53.168Z,101540.88
2023-05-10T15:15:21.104Z,101547.56
2023-05-10T15:17:50.263Z,101544.69
2023-05-10T15:20:18.272Z,101551.59
2023-05-10T15:22:46.059Z,101552.22
2023-05-10T15:25:14.182Z,101556.81
2023-05-10T15:27:41.904Z,101564.06
2023-05-10T15:30:10.723Z,101565.06
2023-05-10T15:32:38.965Z,101569.50
2023-05-10T15:35:09.483Z,101572.03
2023-05-10T15:37:37.463Z,101563.25
2023-05-10T15:40:06.334Z,101576.53
2023-05-10T15:42:34.104Z,101571.31
2023-05-10T15:45:01.944Z,101573.13
2023-05-10T15:47:31.312Z,101577.56
2023-05-10T15:49:58.899Z,101574.09
2023-05-10T15:52:28.025Z,101582.22
2023-05-10T15:54:55.826Z,101576.09
2023-05-10T15:57:23.434Z,101572.69
2023-05-10T15:59:51.165Z,101566.69
2023-05-10T16:02:18.939Z,101580.53
2023-05-10T16:04:46.557Z,101587.41
2023-05-10T16:07:14.431Z,101588.19
2023-05-10T16:09:43.656Z,101596.84
2023-05-10T16:12:11.619Z,101599.41
2023-05-10T16:14:39.477Z,101604.69
2023-05-10T16:17:07.296Z,101621.94
2023-05-10T16:19:34.980Z,101626.22
2023-05-10T16:22:05.550Z,101630.09
2023-05-10T16:24:33.524Z,101638.97
2023-05-10T16:27:02.500Z,101636.75
2023-05-10T16:29:30.255Z,101617.28
2023-05-10T16:31:57.996Z,101635.00
2023-05-10T16:34:25.718Z,101635.00
2023-05-10T16:36:53.456Z,101633.41
2023-05-10T16:39:21.599Z,101635.94
2023-05-10T16:41:49.334Z,101625.75
2023-05-10T16:44:20.572Z,101624.78
2023-05-10T16:46:49.064Z,101629.19
2023-05-10T16:49:16.713Z,101628.28
2023-05-10T16:51:44.726Z,101626.63
2023-05-10T16:54:12.402Z,101627.56
2023-05-10T16:56:39.973Z,101629.44
2023-05-10T16:59:07.666Z,101624.28
2023-05-10T17:01:37.866Z,101622.78
2023-05-10T17:04:11.783Z,101621.19
2023-05-10T17:06:39.800Z,101615.22
2023-05-10T17:09:07.479Z,101613.59
2023-05-10T17:11:38.348Z,101614.53
2023-05-10T17:14:06.340Z,101588.53
2023-05-10T17:16:35.354Z,101584.59
2023-05-10T17:19:05.154Z,101618.59
2023-05-10T17:21:33.092Z,101611.66
2023-05-10T17:24:00.699Z,101615.16
2023-05-10T17:26:28.370Z,101615.47
2023-05-10T17:28:57.403Z,101622.69
2023-05-10T17:31:25.362Z,101625.53
2023-05-10T17:34:04.708Z,101615.97
2023-05-10T17:36:35.287Z,101602.97
2023-05-10T17:39:03.167Z,101624.50
2023-05-10T17:41:33.266Z,101620.13
2023-05-10T17:44:01.070Z,101623.56
2023-05-10T17:46:29.439Z,101622.72
2023-05-10T17:48:59.806Z,101561.09
2023-05-10T17:51:28.205Z,101547.31
2023-05-10T17:53:57.920Z,101551.78
2023-05-10T17:56:25.704Z,101629.81
2023-05-10T17:58:53.525Z,101629.94
2023-05-10T18:01:21.495Z,101638.00
2023-05-10T18:03:49.994Z,101645.13
2023-05-10T18:06:17.880Z,101644.31
2023-05-10T18:08:45.804Z,101637.41
2023-05-10T18:11:14.962Z,101650.59
2023-05-10T18:13:43.006Z,101645.59
2023-05-10T18:16:20.913Z,101652.69
2023-05-10T18:18:49.801Z,101646.06
2023-05-10T18:21:20.746Z,101652.88
2023-05-10T18:23:48.480Z,101666.88
2023-05-10T18:26:17.720Z,101663.44
2023-05-10T18:28:45.507Z,101652.34
2023-05-10T18:31:13.175Z,101664.50
2023-05-10T18:33:44.423Z,101662.09
2023-05-10T18:36:12.640Z,101631.66
2023-05-10T18:38:40.719Z,101680.34
2023-05-10T18:41:08.745Z,101686.53
2023-05-10T18:43:39.254Z,101686.66
2023-05-10T18:46:07.169Z,101686.59
2023-05-10T18:48:35.576Z,101671.94
2023-05-10T18:51:03.414Z,101682.41
2023-05-10T18:53:31.159Z,101679.78
2023-05-10T18:55:59.185Z,101689.41
2023-05-10T18:58:29.027Z,101684.13
2023-05-10T19:00:59.949Z,101694.66
2023-05-10T19:03:31.325Z,101699.91
2023-05-10T19:05:58.887Z,101700.03
2023-05-10T19:08:26.728Z,101697.44
2023-05-10T19:10:55.061Z,101699.25
2023-05-10T19:13:22.727Z,101700.19
2023-05-10T19:16:02.818Z,101684.53
2023-05-10T19:18:34.629Z,101708.09
2023-05-10T19:21:03.366Z,101714.25
2023-05-10T19:23:32.490Z,101708.22
2023-05-10T19:26:00.625Z,101713.44
2023-05-10T19:28:28.192Z,101728.31
2023-05-10T19:30:56.117Z,101726.63
2023-05-10T19:33:26.796Z,101732.72
2023-05-10T19:35:55.409Z,101724.91
2023-05-10T19:38:23.767Z,101727.53
2023-05-10T19:40:52.113Z,101734.53
2023-05-10T19:43:20.496Z,101740.66
2023-05-10T19:45:48.617Z,101733.69
2023-05-10T19:48:16.656Z,101748.50
2023-05-10T19:50:46.026Z,101742.41
2023-05-10T19:53:13.841Z,101738.06
2023-05-10T19:55:41.404Z,101749.41
2023-05-10T19:58:09.180Z,101764.19
2023-05-10T20:00:37.710Z,101761.56
2023-05-10T20:03:06.377Z,101775.53
2023-05-10T20:05:36.255Z,101763.31
2023-05-10T20:08:05.487Z,101772.03
2023-05-10T20:10:33.086Z,101766.78
2023-05-10T20:13:01.309Z,101758.97
2023-05-10T20:15:29.904Z,101752.00
2023-05-10T20:17:57.562Z,101758.94
2023-05-10T20:20:25.249Z,101758.97
2023-05-10T20:22:53.142Z,101747.66
2023-05-10T20:25:22.353Z,101758.09
2023-05-10T20:27:49.897Z,101756.34
2023-05-10T20:30:18.360Z,101750.28
2023-05-10T20:32:46.153Z,101753.75
2023-05-10T20:35:13.731Z,101743.31
2023-05-10T20:37:41.863Z,101745.91
2023-05-10T20:40:10.161Z,101741.56
2023-05-10T20:42:39.478Z,101749.38
2023-05-10T20:45:10.957Z,101752.88
2023-05-10T20:47:38.782Z,101742.44
2023-05-10T20:50:07.391Z,101741.56
2023-05-10T20:52:35.344Z,101732.00
2023-05-10T20:55:02.880Z,101733.75
2023-05-10T20:57:30.691Z,101732.84
2023-05-10T21:00:00.052Z,101735.47
2023-05-10T21:02:27.775Z,101747.66
2023-05-10T21:04:57.769Z,101745.91
2023-05-10T21:07:26.304Z,101745.88
2023-05-10T21:09:53.881Z,101748.50
2023-05-10T21:12:21.441Z,101745.88
2023-05-10T21:14:49.433Z,101744.97
2023-05-10T21:17:20.134Z,101744.13
2023-05-10T21:19:48.258Z,101756.25
2023-05-10T21:22:16.101Z,101744.03
2023-05-10T21:24:44.033Z,101744.06
2023-05-10T21:27:11.616Z,101743.22
2023-05-10T21:29:39.875Z,101739.66
2023-05-10T21:32:07.572Z,101741.41
2023-05-10T21:34:36.663Z,101735.31
2023-05-10T21:37:04.543Z,101744.84
2023-05-10T21:39:32.207Z,101736.09
2023-05-10T21:41:59.777Z,101747.31
2023-05-10T21:44:27.769Z,101745.50
2023-05-10T21:46:55.375Z,101757.66
2023-05-10T21:49:22.938Z,101748.94
2023-05-10T21:51:52.201Z,101753.34
2023-05-10T21:54:19.848Z,101761.22
2023-05-10T21:56:47.675Z,101754.31
2023-05-10T21:59:15.732Z,101765.56
2023-05-10T22:01:43.341Z,101762.94
2023-05-10T22:04:10.914Z,101760.31
2023-05-10T22:06:39.414Z,101760.28
2023-05-10T22:09:08.407Z,101761.13
2023-05-10T22:11:36.024Z,101761.13
2023-05-10T22:14:04.294Z,101755.88
2023-05-10T22:16:32.343Z,101752.31
2023-05-10T22:19:00.062Z,101757.41
2023-05-10T22:21:27.927Z,101759.94
2023-05-10T22:23:55.580Z,101755.50
2023-05-10T22:26:25.444Z,101747.66
2023-05-10T22:28:53.276Z,101751.09
2023-05-10T22:31:20.911Z,101756.31
2023-05-10T22:33:48.508Z,101752.78
2023-05-10T22:36:16.371Z,101750.13
2023-05-10T22:38:43.955Z,101742.28
2023-05-10T22:41:11.527Z,101747.50
2023-05-10T22:43:40.999Z,101747.44
2023-05-10T22:46:08.649Z,101738.63
2023-05-10T22:48:37.034Z,101744.72
2023-05-10T22:51:05.087Z,101746.38
2023-05-10T22:53:32.786Z,101743.75
2023-05-10T22:56:00.527Z,101758.69
2023-05-10T22:58:28.458Z,101770.88
2023-05-10T23:00:57.551Z,101764.78
2023-05-10T23:03:25.775Z,101755.13
2023-05-10T23:05:54.010Z,101756.88
2023-05-10T23:08:21.971Z,101750.75
2023-05-10T23:10:49.862Z,101757.66
2023-05-10T23:13:17.890Z,101748.16
2023-05-10T23:15:45.505Z,101755.09
2023-05-10T23:18:14.459Z,101749.00
2023-05-10T23:20:42.607Z,101750.81
2023-05-10T23:23:10.398Z,101748.22
2023-05-10T23:25:38.177Z,101752.53
2023-05-10T23:28:06.048Z,101747.25
2023-05-10T23:30:34.051Z,101740.28
2023-05-10T23:33:01.688Z,101749.03
2023-05-10T23:35:31.198Z,101749.03
2023-05-10T23:37:58.880Z,101754.13
2023-05-10T23:40:26.424Z,101748.97
2023-05-10T23:42:54.541Z,101757.56
2023-05-10T23:45:22.055Z,101748.72
2023-05-10T23:47:49.643Z,101746.13
2023-05-10T23:50:18.153Z,101741.69
2023-05-10T23:52:47.465Z,101737.28
2023-05-10T23:55:15.280Z,101753.63
2023-05-10T23:57:43.278Z,101746.56
